x

West Dixon Entrance (46205) Wave Buoy

10:00pm - Sat 23rd Sep 2017 All times are PDT. -7 hours from GMT.

  • Sig Wave height 8.2ft
  • Peak Period 7s
  • Wind
    20mph, 25mph gusts
  • Sea Temp 57°f
  • Air Temp 58°f
  • Sea Pressure 1009.9mb
  • West Dixon Entrance
  • West Dixon Entrance

More Historic Weather Station data

Upgrade to MSW Pro to gain access to the past 30 days of data for over 8000 Wavebouys and Weather Stations around the globe.

Join

Comparision Forecast

View Surf forecast
   
Sat 09/23 10:00pm 8ft 7s 20 25 mph 1009.9mb 57f 58f
9:00pm 9ft 7s 22 27 mph 1009.5mb 57f 58f
8:00pm 8ft 8s 25 29 mph 1009.2mb 57f 58f
7:00pm 8.5ft 8s 25 29 mph 1009.1mb 57f 58f
6:00pm 8.5ft 9s 25 29 mph 1009.3mb 57f 58f
5:00pm 8.5ft 8s 22 27 mph 1009.5mb 57f 58f
4:00pm 8ft 8s 22 27 mph 1010.3mb 57f 58f
3:00pm 7.5ft 7s 22 29 mph 1010.9mb 57f 57f
2:00pm 7ft 7s 25 29 mph 1011.1mb 57f 57f
1:00pm 7ft 7s 22 25 mph 1011.1mb 57f 57f
12:00pm 6ft 10s 22 27 mph 1011.1mb 57f 57f
11:00am 6.5ft 6s 22 27 mph 1011.5mb 57f 57f
10:00am 6ft 8s 22 27 mph 1011.6mb 57f 57f
9:00am 6ft 8s 22 27 mph 1011.7mb 57f 57f
8:00am 6ft 8s 20 25 mph 1012mb 57f 57f
7:00am 6ft 9s 20 22 mph 1012.1mb 57f 58f
6:00am 6ft 8s 18 22 mph 1012.4mb 57f 57f
5:00am 5ft 8s 20 25 mph 1012.7mb 57f 57f
4:00am 5ft 8s 18 22 mph 1013mb 57f 57f
3:00am 5ft 8s 16 18 mph 1013.6mb 57f 57f
2:00am 4.5ft 9s 11 13 mph 1014.5mb 57f 57f
1:00am 4.5ft 8s 11 13 mph 1015mb 57f 56f
12:00am 4.5ft 8s 9 9 mph 1015.6mb 57f 56f
Fri 09/22 11:00pm 4.5ft 8s 9 11 mph 1015.8mb 57f 56f
10:00pm 4.5ft 7s 4 7 mph 1016mb 57f 56f
9:00pm 5ft 8s 4 7 mph 1016.2mb 57f 56f
8:00pm 5ft 7s 4 7 mph 1016.4mb 57f 57f
7:00pm 5ft 7s 7 9 mph 1016.6mb 57f 57f
6:00pm 4.5ft 7s 7 9 mph 1016.9mb 57f 57f
5:00pm 5ft 7s 9 9 mph 1016.5mb 57f 57f
4:00pm 4.5ft 8s 9 13 mph 1016.4mb 57f 57f
3:00pm 4.5ft 7s 9 11 mph 1016.6mb 57f 57f
2:00pm 4.5ft 8s 9 11 mph 1016.2mb 57f 57f
1:00pm 4.5ft 7s 11 13 mph 1016.2mb 57f 57f
12:00pm 4.5ft 7s 13 18 mph 1016.2mb 57f 57f
11:00am 4.5ft 7s 13 16 mph 1016mb 57f 57f
10:00am 4.5ft 7s 13 16 mph 1015.8mb 57f 57f
9:00am 5ft 7s 16 18 mph 1015.8mb 57f 57f
8:00am 5ft 6s 16 20 mph 1015.8mb 57f 57f
7:00am 4.5ft 7s 18 20 mph 1015.8mb 57f 57f
6:00am 4.5ft 7s 16 20 mph 1016.2mb 57f 58f
5:00am 4.5ft 5s 18 20 mph 1016.6mb 57f 58f
4:00am 4.5ft 6s 16 20 mph 1016.8mb 57f 57f
3:00am 4.5ft 7s 18 22 mph 1017.3mb 57f 57f
2:00am 4ft 7s 18 20 mph 1018.1mb 57f 56f
1:00am 3.5ft 13s 18 22 mph 1018.5mb 57f 55f
12:00am 3.5ft 7s 18 20 mph 1019.1mb 57f 55f
Thu 09/21 11:00pm 3.5ft 7s 16 20 mph 1019.6mb 57f 56f
10:00pm 4ft 8s 13 13 mph 1020.2mb 57f 56f
9:00pm 4.5ft 8s 11 13 mph 1020.6mb 57f 56f
8:00pm 4.5ft 8s 9 11 mph 1020.8mb 57f 56f
7:00pm 5ft 7s 9 11 mph 1021mb 57f 56f
6:00pm 4.5ft 7s 11 16 mph 1021.4mb 57f 56f
5:00pm 5ft 8s 11 13 mph 1021.5mb 57f 56f
4:00pm 5ft 7s 13 18 mph 1021.7mb 57f 56f
3:00pm 5ft 8s 13 18 mph 1021.5mb 57f 56f
2:00pm 5ft 8s 16 18 mph 1021.6mb 57f 56f
1:00pm 5ft 6s 13 16 mph 1021.3mb 57f 55f
12:00pm 5.5ft 8s 13 18 mph 1021.5mb 57f 55f
9:00am 6.5ft 8s 18 22 mph 1021.3mb 57f 55f
8:00am 7ft 8s 18 25 mph 1021.2mb 57f 55f
7:00am 7.5ft 8s 20 25 mph 1021.2mb 57f 55f
6:00am 8ft 8s 20 27 mph 1020.9mb 57f 55f
5:00am 8ft 7s 20 25 mph 1020.5mb 57f 55f
4:00am 8ft 8s 20 25 mph 1020.2mb 57f 55f
3:00am 8ft 8s 20 25 mph 1019.8mb 57f 55f
2:00am 8ft 7s 20 25 mph 1019.6mb 57f 55f
1:00am 8ft 8s 25 31 mph 1019.2mb 57f 55f
12:00am 8ft 8s 25 29 mph 1019.3mb 57f 55f
Wed 09/20 11:00pm 7.5ft 7s 27 31 mph 1019.2mb 57f 55f
10:00pm 8ft 7s 25 31 mph 1019.3mb 57f 55f
9:00pm 8ft 8s 27 31 mph 1019.3mb 57f 56f
8:00pm 9ft 8s 25 29 mph 1019.1mb 57f 56f
7:00pm 9.5ft 8s 27 31 mph 1018.5mb 57f 56f
6:00pm 10ft 9s 27 34 mph 1018.2mb 57f 56f
5:00pm 9ft 9s 25 31 mph 1017.7mb 57f 56f
4:00pm 9ft 10s 25 31 mph 1017.5mb 57f 56f
3:00pm 8.5ft 9s 25 29 mph 1017.1mb 57f 56f
2:00pm 8.5ft 9s 25 29 mph 1016.8mb 57f 56f
1:00pm 8ft 7s 25 29 mph 1016.6mb 57f 57f
12:00pm 7.5ft 10s 25 31 mph 1016.2mb 57f 56f
11:00am 7ft 8s 22 29 mph 1016.1mb 57f 56f
10:00am  -   -  25
mph
1015.5mb - 56f
9:00am 7ft 10s 25 29 mph 1015.3mb 57f 56f
8:00am 7.5ft 9s 22 27 mph 1015.2mb 57f 56f
7:00am 7ft 10s 22 27 mph 1014.6mb 57f 56f